createdAt,value
2023-03-31T00:00:58.045Z,2.30
2023-03-31T00:02:01.949Z,2.20
2023-03-31T00:03:10.116Z,2.10
2023-03-31T00:04:13.612Z,2.45
2023-03-31T00:05:18.277Z,2.00
2023-03-31T00:06:20.698Z,2.35
2023-03-31T00:07:23.093Z,2.15
2023-03-31T00:08:35.442Z,2.30
2023-03-31T00:10:45.598Z,1.90
2023-03-31T00:11:51.825Z,2.10
2023-03-31T00:12:54.062Z,2.25
2023-03-31T00:13:56.279Z,2.40
2023-03-31T00:14:58.489Z,2.28
2023-03-31T00:16:02.488Z,2.35
2023-03-31T00:17:04.809Z,2.00
2023-03-31T00:18:07.156Z,2.40
2023-03-31T00:19:17.835Z,2.10
2023-03-31T00:20:20.538Z,2.25
2023-03-31T00:21:33.877Z,2.58
2023-03-31T00:22:38.489Z,2.10
2023-03-31T00:23:41.659Z,2.58
2023-03-31T00:24:43.858Z,7.13
2023-03-31T00:25:46.114Z,9.57
2023-03-31T00:26:48.281Z,8.57
2023-03-31T00:27:50.573Z,11.77
2023-03-31T00:28:53.473Z,5.53
2023-03-31T00:29:55.605Z,5.88
2023-03-31T00:31:02.695Z,6.10
2023-03-31T00:32:04.967Z,5.82
2023-03-31T00:33:07.200Z,6.13
2023-03-31T00:34:09.439Z,5.90
2023-03-31T00:35:11.853Z,4.70
2023-03-31T00:36:21.120Z,5.15
2023-03-31T00:37:24.776Z,4.68
2023-03-31T00:38:28.984Z,5.18
2023-03-31T00:39:33.870Z,3.33
2023-03-31T00:40:36.995Z,4.30
2023-03-31T00:41:39.455Z,3.38
2023-03-31T00:42:43.145Z,2.92
2023-03-31T00:44:14.989Z,3.15
2023-03-31T00:45:17.283Z,2.83
2023-03-31T00:46:27.405Z,2.63
2023-03-31T00:47:30.152Z,2.65
2023-03-31T00:48:34.699Z,3.83
2023-03-31T00:49:40.777Z,4.30
2023-03-31T00:50:51.288Z,3.30
2023-03-31T00:51:56.992Z,3.70
2023-03-31T00:53:05.977Z,3.15
2023-03-31T00:54:08.380Z,2.55
2023-03-31T00:55:16.950Z,2.30
2023-03-31T00:56:19.167Z,2.17
2023-03-31T00:57:23.603Z,2.28
2023-03-31T00:58:28.849Z,2.28
2023-03-31T00:59:34.890Z,2.30
2023-03-31T01:00:37.254Z,2.83
2023-03-31T01:01:42.943Z,2.25
2023-03-31T01:02:58.707Z,2.67
2023-03-31T01:04:02.227Z,2.25
2023-03-31T01:05:05.304Z,2.00
2023-03-31T01:06:10.457Z,2.40
2023-03-31T01:07:40.441Z,2.45
2023-03-31T01:08:44.302Z,2.42
2023-03-31T01:09:47.918Z,1.85
2023-03-31T01:10:56.738Z,2.05
2023-03-31T01:11:59.116Z,2.50
2023-03-31T01:13:01.558Z,2.50
2023-03-31T01:14:05.848Z,2.63
2023-03-31T01:15:09.502Z,1.90
2023-03-31T01:16:12.030Z,2.05
2023-03-31T01:17:19.037Z,2.35
2023-03-31T01:18:22.408Z,2.75
2023-03-31T01:19:36.405Z,2.28
2023-03-31T01:21:18.538Z,2.50
2023-03-31T01:22:54.370Z,2.13
2023-03-31T01:24:17.873Z,2.47
2023-03-31T01:25:43.417Z,2.15
2023-03-31T01:27:24.770Z,2.15
2023-03-31T01:29:08.865Z,2.00
2023-03-31T01:30:25.586Z,1.55
2023-03-31T01:32:24.020Z,1.98
2023-03-31T01:33:57.197Z,1.65
2023-03-31T01:35:23.345Z,1.50
2023-03-31T01:36:57.844Z,1.50
2023-03-31T01:38:31.376Z,1.85
2023-03-31T01:39:52.085Z,1.60
2023-03-31T01:41:22.599Z,1.85
2023-03-31T01:42:48.270Z,1.80
2023-03-31T01:44:17.545Z,1.60
2023-03-31T01:45:50.631Z,1.88
2023-03-31T01:47:14.262Z,1.30
2023-03-31T01:48:44.482Z,1.35
2023-03-31T01:50:04.994Z,1.40
2023-03-31T01:51:13.849Z,1.35
2023-03-31T01:52:20.903Z,1.30
2023-03-31T01:53:30.074Z,1.80
2023-03-31T01:54:51.985Z,1.63
2023-03-31T01:56:37.610Z,1.65
2023-03-31T01:57:54.211Z,2.17
2023-03-31T01:59:08.220Z,1.50
2023-03-31T02:02:13.757Z,2.08
2023-03-31T02:03:22.277Z,1.75
2023-03-31T02:04:31.504Z,2.03
2023-03-31T02:05:41.846Z,2.05
2023-03-31T02:06:49.979Z,2.22
2023-03-31T02:07:59.357Z,2.40
2023-03-31T02:09:06.443Z,2.33
2023-03-31T02:10:12.513Z,2.33
2023-03-31T02:11:15.439Z,2.80
2023-03-31T02:12:20.121Z,2.40
2023-03-31T02:13:26.844Z,2.30
2023-03-31T02:14:33.632Z,2.40
2023-03-31T02:15:40.281Z,2.40
2023-03-31T02:16:47.746Z,2.17
2023-03-31T02:17:55.501Z,2.65
2023-03-31T02:19:09.485Z,2.00
2023-03-31T02:20:15.841Z,2.13
2023-03-31T02:21:19.321Z,1.77
2023-03-31T02:22:24.010Z,2.20
2023-03-31T02:23:31.645Z,2.35
2023-03-31T02:24:36.493Z,2.53
2023-03-31T02:25:46.349Z,2.42
2023-03-31T02:26:54.315Z,2.35
2023-03-31T02:28:00.878Z,2.30
2023-03-31T02:29:03.356Z,2.67
2023-03-31T02:30:07.110Z,2.92
2023-03-31T02:31:43.319Z,3.13
2023-03-31T02:32:47.081Z,2.92
2023-03-31T02:33:51.798Z,2.28
2023-03-31T02:34:55.886Z,2.50
2023-03-31T02:36:00.069Z,2.13
2023-03-31T02:37:02.365Z,1.85
2023-03-31T02:38:06.663Z,2.30
2023-03-31T02:39:13.003Z,2.20
2023-03-31T02:40:21.706Z,2.25
2023-03-31T02:41:26.238Z,2.15
2023-03-31T02:42:28.949Z,2.50
2023-03-31T02:43:31.171Z,2.45
2023-03-31T02:44:35.070Z,2.50
2023-03-31T02:45:41.747Z,2.20
2023-03-31T02:46:45.705Z,2.50
2023-03-31T02:47:47.998Z,2.55
2023-03-31T02:48:54.023Z,2.47
2023-03-31T02:49:59.746Z,2.40
2023-03-31T02:51:08.716Z,2.65
2023-03-31T02:52:19.442Z,2.42
2023-03-31T02:53:29.531Z,2.10
2023-03-31T02:54:52.536Z,2.15
2023-03-31T02:57:44.721Z,2.10
2023-03-31T02:59:16.561Z,2.40
2023-03-31T03:00:41.609Z,2.25
2023-03-31T03:02:05.551Z,2.25
2023-03-31T03:03:29.275Z,2.13
2023-03-31T03:05:03.281Z,2.30
2023-03-31T03:06:18.842Z,1.80
2023-03-31T03:07:48.877Z,2.35
2023-03-31T03:09:03.489Z,2.70
2023-03-31T03:10:16.313Z,2.00
2023-03-31T03:11:29.088Z,2.30
2023-03-31T03:12:49.803Z,2.47
2023-03-31T03:14:07.749Z,2.28
2023-03-31T03:15:28.147Z,2.25
2023-03-31T03:16:36.804Z,2.22
2023-03-31T03:17:45.355Z,2.10
2023-03-31T03:19:02.334Z,2.22
2023-03-31T03:20:09.813Z,2.00
2023-03-31T03:21:12.051Z,2.10
2023-03-31T03:22:14.205Z,1.90
2023-03-31T03:23:17.807Z,2.53
2023-03-31T03:24:22.620Z,2.13
2023-03-31T03:25:25.607Z,1.90
2023-03-31T03:26:28.193Z,2.55
2023-03-31T03:27:31.859Z,2.53
2023-03-31T03:28:34.030Z,2.40
2023-03-31T03:29:36.182Z,2.28
2023-03-31T03:30:38.993Z,1.98
2023-03-31T03:31:42.182Z,1.95
2023-03-31T03:32:44.355Z,2.00
2023-03-31T03:33:46.764Z,2.35
2023-03-31T03:34:49.042Z,2.20
2023-03-31T03:35:51.751Z,2.53
2023-03-31T03:36:54.006Z,2.30
2023-03-31T03:37:56.204Z,2.25
2023-03-31T03:38:58.503Z,2.20
2023-03-31T03:40:00.798Z,2.33
2023-03-31T03:41:03.135Z,1.90
2023-03-31T03:42:05.738Z,2.42
2023-03-31T03:43:07.955Z,1.98
2023-03-31T03:44:10.192Z,2.45
2023-03-31T03:45:12.354Z,2.17
2023-03-31T03:46:17.202Z,1.90
2023-03-31T03:47:19.401Z,2.10
2023-03-31T03:48:21.626Z,2.00
2023-03-31T03:49:23.912Z,2.13
2023-03-31T03:50:26.167Z,2.05
2023-03-31T03:51:28.466Z,2.67
2023-03-31T03:52:30.734Z,2.47
2023-03-31T03:53:33.138Z,2.05
2023-03-31T03:54:35.692Z,2.22
2023-03-31T03:55:37.974Z,1.83
2023-03-31T03:56:40.516Z,2.40
2023-03-31T03:57:42.722Z,2.08
2023-03-31T03:58:44.869Z,2.20
2023-03-31T03:59:47.300Z,2.35
2023-03-31T04:00:49.485Z,2.13
2023-03-31T04:01:52.646Z,2.08
2023-03-31T04:02:54.890Z,2.20
2023-03-31T04:03:57.218Z,2.45
2023-03-31T04:04:59.426Z,2.00
2023-03-31T04:06:01.677Z,2.05
2023-03-31T04:07:03.893Z,2.22
2023-03-31T04:08:08.432Z,2.17
2023-03-31T04:09:11.244Z,2.22
2023-03-31T04:10:13.517Z,1.75
2023-03-31T04:11:19.070Z,2.13
2023-03-31T04:12:21.573Z,2.15
2023-03-31T04:13:23.888Z,2.22
2023-03-31T04:14:26.314Z,2.38
2023-03-31T04:15:28.595Z,2.50
2023-03-31T04:16:32.366Z,2.63
2023-03-31T04:17:34.960Z,2.25
2023-03-31T04:18:42.703Z,2.30
2023-03-31T04:19:50.625Z,2.20
2023-03-31T04:21:05.771Z,2.60
2023-03-31T04:22:11.606Z,2.97
2023-03-31T04:23:14.990Z,3.00
2023-03-31T04:24:21.711Z,3.00
2023-03-31T04:25:24.154Z,3.17
2023-03-31T04:26:31.450Z,3.47
2023-03-31T04:27:35.008Z,3.20
2023-03-31T04:28:38.446Z,3.58
2023-03-31T04:29:40.637Z,2.95
2023-03-31T04:30:43.393Z,2.78
2023-03-31T04:31:45.763Z,3.70
2023-03-31T04:32:55.387Z,3.50
2023-03-31T04:34:06.664Z,2.60
2023-03-31T04:35:09.061Z,3.90
2023-03-31T04:36:17.730Z,2.83
2023-03-31T04:37:20.056Z,2.70
2023-03-31T04:38:23.954Z,3.65
2023-03-31T04:39:30.704Z,3.75
2023-03-31T04:40:35.222Z,4.72
2023-03-31T04:41:37.375Z,4.30
2023-03-31T04:42:39.602Z,4.82
2023-03-31T04:43:42.189Z,5.20
2023-03-31T04:44:44.417Z,5.90
2023-03-31T04:45:49.935Z,5.43
2023-03-31T04:46:52.156Z,6.97
2023-03-31T04:47:54.403Z,6.50
2023-03-31T04:48:56.999Z,7.63
2023-03-31T04:49:59.198Z,7.05
2023-03-31T04:51:01.432Z,7.28
2023-03-31T04:52:03.792Z,7.07
2023-03-31T04:53:06.731Z,7.90
2023-03-31T04:54:08.923Z,7.28
2023-03-31T04:55:11.292Z,7.55
2023-03-31T04:56:13.513Z,6.65
2023-03-31T04:57:15.959Z,4.65
2023-03-31T04:58:18.185Z,5.35
2023-03-31T04:59:20.316Z,4.32
2023-03-31T05:00:23.178Z,3.50
2023-03-31T05:01:25.448Z,4.15
2023-03-31T05:02:27.745Z,3.83
2023-03-31T05:03:30.222Z,3.65
2023-03-31T05:04:32.568Z,2.72
2023-03-31T05:05:34.758Z,3.17
2023-03-31T05:06:36.896Z,2.70
2023-03-31T05:07:39.777Z,3.20
2023-03-31T05:08:42.517Z,3.20
2023-03-31T05:09:45.150Z,3.33
2023-03-31T05:10:47.296Z,3.55
2023-03-31T05:11:49.445Z,3.22
2023-03-31T05:12:51.613Z,3.50
2023-03-31T05:13:53.746Z,3.25
2023-03-31T05:14:55.981Z,3.47
2023-03-31T05:15:58.310Z,2.80
2023-03-31T05:17:01.111Z,3.97
2023-03-31T05:18:03.408Z,4.32
2023-03-31T05:19:05.797Z,3.30
2023-03-31T05:20:09.474Z,3.08
2023-03-31T05:21:17.343Z,3.35
2023-03-31T05:22:20.618Z,3.97
2023-03-31T05:23:22.808Z,3.47
2023-03-31T05:24:25.241Z,3.15
2023-03-31T05:25:32.617Z,3.78
2023-03-31T05:26:34.869Z,3.65
2023-03-31T05:27:37.808Z,3.60
2023-03-31T05:28:40.322Z,3.90
2023-03-31T05:29:42.532Z,3.40
2023-03-31T05:30:44.717Z,3.83
2023-03-31T05:31:47.460Z,3.40
2023-03-31T05:32:49.705Z,4.40
2023-03-31T05:33:51.979Z,3.97
2023-03-31T05:34:57.723Z,3.42
2023-03-31T05:36:03.113Z,3.47
2023-03-31T05:37:05.528Z,4.18
2023-03-31T05:38:07.724Z,3.78
2023-03-31T05:39:10.029Z,3.70
2023-03-31T05:40:12.470Z,3.78
2023-03-31T05:41:16.796Z,4.20
2023-03-31T05:42:19.724Z,4.43
2023-03-31T05:43:21.971Z,4.00
2023-03-31T05:44:24.106Z,4.13
2023-03-31T05:45:26.344Z,3.90
2023-03-31T05:46:28.636Z,4.43
2023-03-31T05:47:30.812Z,3.85
2023-03-31T05:48:32.999Z,3.80
2023-03-31T05:49:35.271Z,3.90
2023-03-31T05:50:37.497Z,4.10
2023-03-31T05:51:39.803Z,3.70
2023-03-31T05:52:42.082Z,4.53
2023-03-31T05:53:44.409Z,4.78
2023-03-31T05:54:46.697Z,5.05
2023-03-31T05:55:48.939Z,5.13
2023-03-31T05:56:51.136Z,4.53
2023-03-31T05:57:54.489Z,4.95
2023-03-31T05:58:57.627Z,4.68
2023-03-31T06:00:00.518Z,4.65
2023-03-31T06:01:16.376Z,4.65
2023-03-31T06:02:20.355Z,4.20
2023-03-31T06:03:22.768Z,4.85
2023-03-31T06:04:25.016Z,5.40
2023-03-31T06:05:27.541Z,5.63
2023-03-31T06:06:29.768Z,5.70
2023-03-31T06:07:31.920Z,5.00
2023-03-31T06:08:35.664Z,4.88
2023-03-31T06:09:37.798Z,5.00
2023-03-31T06:10:42.775Z,4.97
2023-03-31T06:11:45.091Z,5.28
2023-03-31T06:12:47.552Z,4.68
2023-03-31T06:13:50.051Z,5.07
2023-03-31T06:14:52.632Z,5.07
2023-03-31T06:15:59.600Z,5.25
2023-03-31T06:17:01.856Z,6.07
2023-03-31T06:18:04.217Z,5.75
2023-03-31T06:19:06.598Z,5.18
2023-03-31T06:20:20.440Z,5.32
2023-03-31T06:21:29.918Z,5.95
2023-03-31T06:22:32.745Z,5.30
2023-03-31T06:23:35.061Z,5.75
2023-03-31T06:24:37.323Z,6.57
2023-03-31T06:25:50.321Z,5.70
2023-03-31T06:26:54.120Z,5.50
2023-03-31T06:27:56.316Z,5.53
2023-03-31T06:28:58.533Z,5.65
2023-03-31T06:30:00.874Z,5.55
2023-03-31T06:31:09.312Z,5.90
2023-03-31T06:32:12.075Z,4.82
2023-03-31T06:33:14.404Z,5.28
2023-03-31T06:34:17.829Z,4.60
2023-03-31T06:35:20.799Z,4.38
2023-03-31T06:36:23.140Z,3.92
2023-03-31T06:37:25.522Z,4.07
2023-03-31T06:38:28.335Z,3.83
2023-03-31T06:39:30.714Z,3.42
2023-03-31T06:40:33.853Z,3.22
2023-03-31T06:41:36.040Z,3.58
2023-03-31T06:42:38.267Z,3.70
2023-03-31T06:43:40.977Z,3.38
2023-03-31T06:44:43.262Z,4.15
2023-03-31T06:45:45.440Z,3.53
2023-03-31T06:46:47.623Z,3.30
2023-03-31T06:47:49.841Z,3.65
2023-03-31T06:48:53.276Z,4.03
2023-03-31T06:49:55.543Z,4.32
2023-03-31T06:51:02.403Z,4.55
2023-03-31T06:52:04.982Z,4.22
2023-03-31T06:53:08.626Z,4.13
2023-03-31T06:54:11.239Z,4.30
2023-03-31T06:55:15.430Z,3.83
2023-03-31T06:56:17.603Z,4.40
2023-03-31T06:57:20.837Z,3.95
2023-03-31T06:58:23.143Z,4.22
2023-03-31T06:59:25.426Z,3.90
2023-03-31T07:00:27.792Z,3.42
2023-03-31T07:01:31.481Z,3.58
2023-03-31T07:02:33.815Z,3.70
2023-03-31T07:03:36.264Z,3.42
2023-03-31T07:04:38.504Z,3.50
2023-03-31T07:05:40.957Z,3.75
2023-03-31T07:06:43.191Z,3.30
2023-03-31T07:07:46.501Z,3.17
2023-03-31T07:08:48.783Z,3.75
2023-03-31T07:09:51.015Z,3.33
2023-03-31T07:10:58.767Z,3.15
2023-03-31T07:12:01.628Z,3.67
2023-03-31T07:13:05.624Z,3.20
2023-03-31T07:14:07.991Z,3.22
2023-03-31T07:15:10.485Z,2.97
2023-03-31T07:16:14.202Z,2.75
2023-03-31T07:17:16.524Z,3.00
2023-03-31T07:18:19.952Z,3.13
2023-03-31T07:19:22.857Z,3.38
2023-03-31T07:20:25.813Z,3.28
2023-03-31T07:21:28.187Z,2.90
2023-03-31T07:22:30.429Z,2.95
2023-03-31T07:23:32.591Z,2.90
2023-03-31T07:24:34.813Z,2.97
2023-03-31T07:25:37.029Z,2.83
2023-03-31T07:26:39.197Z,2.55
2023-03-31T07:27:41.914Z,2.85
2023-03-31T07:28:44.086Z,3.03
2023-03-31T07:29:46.342Z,2.65
2023-03-31T07:30:48.557Z,2.67
2023-03-31T07:31:50.890Z,2.60
2023-03-31T07:32:54.546Z,2.63
2023-03-31T07:33:57.157Z,2.40
2023-03-31T07:35:00.285Z,3.10
2023-03-31T07:36:12.575Z,2.17
2023-03-31T07:37:16.075Z,2.60
2023-03-31T07:38:18.351Z,1.75
2023-03-31T07:39:22.566Z,1.90
2023-03-31T07:40:27.492Z,2.22
2023-03-31T07:41:29.990Z,1.80
2023-03-31T07:42:33.548Z,2.00
2023-03-31T07:43:35.824Z,1.83
2023-03-31T07:44:38.375Z,1.98
2023-03-31T07:45:40.943Z,2.08
2023-03-31T07:46:43.436Z,2.00
2023-03-31T07:47:46.672Z,1.85
2023-03-31T07:48:49.879Z,2.25
2023-03-31T07:49:52.106Z,2.60
2023-03-31T07:50:54.740Z,2.10
2023-03-31T07:52:04.798Z,1.70
2023-03-31T07:53:07.471Z,2.38
2023-03-31T07:54:09.676Z,1.90
2023-03-31T07:55:12.461Z,1.83
2023-03-31T07:56:16.884Z,1.73
2023-03-31T07:57:19.422Z,1.98
2023-03-31T07:58:21.809Z,2.15
2023-03-31T07:59:24.020Z,2.00
2023-03-31T08:00:26.361Z,1.63
2023-03-31T08:01:29.896Z,2.00
2023-03-31T08:02:32.628Z,1.70
2023-03-31T08:03:35.485Z,2.20
2023-03-31T08:04:38.248Z,1.70
2023-03-31T08:05:40.641Z,2.25
2023-03-31T08:06:44.275Z,2.13
2023-03-31T08:07:48.970Z,1.80
2023-03-31T08:08:51.729Z,2.03
2023-03-31T08:09:54.021Z,1.98
2023-03-31T08:10:56.390Z,2.40
2023-03-31T08:11:58.961Z,2.13
2023-03-31T08:13:01.233Z,2.17
2023-03-31T08:14:03.496Z,2.13
2023-03-31T08:15:09.206Z,2.50
2023-03-31T08:16:11.557Z,1.80
2023-03-31T08:17:14.046Z,2.10
2023-03-31T08:18:19.971Z,2.13
2023-03-31T08:19:22.624Z,2.25
2023-03-31T08:20:25.010Z,2.15
2023-03-31T08:21:28.492Z,2.28
2023-03-31T08:22:30.983Z,2.35
2023-03-31T08:23:33.277Z,1.95
2023-03-31T08:24:35.598Z,2.25
2023-03-31T08:25:38.504Z,2.65
2023-03-31T08:26:43.029Z,2.60
2023-03-31T08:27:46.702Z,1.52
2023-03-31T08:28:49.241Z,1.90
2023-03-31T08:29:51.762Z,2.40
2023-03-31T08:30:54.190Z,2.22
2023-03-31T08:31:56.935Z,2.08
2023-03-31T08:32:59.227Z,2.22
2023-03-31T08:34:02.749Z,1.90
2023-03-31T08:35:05.553Z,2.42
2023-03-31T08:36:10.580Z,2.10
2023-03-31T08:37:13.066Z,2.20
2023-03-31T08:38:15.369Z,1.92
2023-03-31T08:39:18.164Z,1.85
2023-03-31T08:40:24.061Z,1.85
2023-03-31T08:41:32.169Z,2.25
2023-03-31T08:42:43.827Z,2.30
2023-03-31T08:43:48.191Z,1.75
2023-03-31T08:45:01.888Z,2.42
2023-03-31T08:46:04.975Z,2.08
2023-03-31T08:47:15.896Z,1.95
2023-03-31T08:48:25.676Z,2.38
2023-03-31T08:49:39.387Z,2.20
2023-03-31T08:50:47.628Z,2.05
2023-03-31T08:51:54.678Z,2.10
2023-03-31T08:53:07.247Z,2.05
2023-03-31T08:54:33.229Z,2.40
2023-03-31T08:55:48.937Z,2.25
2023-03-31T08:56:51.946Z,1.85
2023-03-31T08:58:01.846Z,2.20
2023-03-31T08:59:04.125Z,2.08
2023-03-31T09:00:11.018Z,2.13
2023-03-31T09:01:19.790Z,2.53
2023-03-31T09:02:48.681Z,2.10
2023-03-31T09:04:12.489Z,1.98
2023-03-31T09:05:33.402Z,2.00
2023-03-31T09:06:46.476Z,2.05
2023-03-31T09:08:19.386Z,2.13
2023-03-31T09:09:44.473Z,1.60
2023-03-31T09:10:59.857Z,2.40
2023-03-31T09:12:16.400Z,2.13
2023-03-31T09:13:46.745Z,1.75
2023-03-31T09:14:58.989Z,1.98
2023-03-31T09:16:15.743Z,2.00
2023-03-31T09:17:18.881Z,1.92
2023-03-31T09:18:35.769Z,1.52
2023-03-31T09:20:01.711Z,1.75
2023-03-31T09:21:15.841Z,1.98
2023-03-31T09:22:26.782Z,1.92
2023-03-31T09:23:42.996Z,1.48
2023-03-31T09:25:10.589Z,2.20
2023-03-31T09:26:45.182Z,1.92
2023-03-31T09:27:50.460Z,2.42
2023-03-31T09:28:57.624Z,1.90
2023-03-31T09:30:24.891Z,2.10
2023-03-31T09:31:27.253Z,2.42
2023-03-31T09:32:31.981Z,2.00
2023-03-31T09:33:34.708Z,2.20
2023-03-31T09:34:37.416Z,2.13
2023-03-31T09:35:39.628Z,2.55
2023-03-31T09:36:42.832Z,2.00
2023-03-31T09:37:45.106Z,2.72
2023-03-31T09:38:47.694Z,2.05
2023-03-31T09:39:49.861Z,2.38
2023-03-31T09:40:52.120Z,2.30
2023-03-31T09:41:55.752Z,2.33
2023-03-31T09:43:06.650Z,2.40
2023-03-31T09:44:22.837Z,2.53
2023-03-31T09:45:25.412Z,2.38
2023-03-31T09:46:34.668Z,2.20
2023-03-31T09:47:46.363Z,2.20
2023-03-31T09:49:14.296Z,1.95
2023-03-31T09:50:17.362Z,2.25
2023-03-31T09:51:27.153Z,2.20
2023-03-31T09:52:34.984Z,2.20
2023-03-31T09:53:53.598Z,2.20
2023-03-31T09:54:58.170Z,2.63
2023-03-31T09:56:06.306Z,2.20
2023-03-31T09:57:24.078Z,2.55
2023-03-31T09:58:26.343Z,2.22
2023-03-31T09:59:35.606Z,2.22
2023-03-31T10:00:42.208Z,2.58
2023-03-31T10:01:46.246Z,2.15
2023-03-31T10:03:04.061Z,2.03
2023-03-31T10:04:09.156Z,1.92
2023-03-31T10:05:33.103Z,2.30
2023-03-31T10:06:42.073Z,2.40
2023-03-31T10:07:44.417Z,1.90
2023-03-31T10:08:52.277Z,2.05
2023-03-31T10:09:55.607Z,2.03
2023-03-31T10:11:09.168Z,2.40
2023-03-31T10:12:24.158Z,2.30
2023-03-31T10:13:43.261Z,1.83
2023-03-31T10:14:48.390Z,2.25
2023-03-31T10:15:55.581Z,2.20
2023-03-31T10:16:58.697Z,1.90
2023-03-31T10:18:01.414Z,2.60
2023-03-31T10:19:25.978Z,2.58
2023-03-31T10:20:39.155Z,2.20
2023-03-31T10:21:46.161Z,2.40
2023-03-31T10:22:48.395Z,2.05
2023-03-31T10:23:51.376Z,2.35
2023-03-31T10:24:53.887Z,2.00
2023-03-31T10:25:56.547Z,2.47
2023-03-31T10:26:58.876Z,2.35
2023-03-31T10:28:02.246Z,2.33
2023-03-31T10:29:12.856Z,2.28
2023-03-31T10:30:22.005Z,2.10
2023-03-31T10:31:26.867Z,2.25
2023-03-31T10:32:34.747Z,2.53
2023-03-31T10:33:45.035Z,2.30
2023-03-31T10:34:47.603Z,2.83
2023-03-31T10:36:02.904Z,2.30
2023-03-31T10:37:07.347Z,2.30
2023-03-31T10:38:17.421Z,2.03
2023-03-31T10:39:20.537Z,2.25
2023-03-31T10:40:27.274Z,2.13
2023-03-31T10:41:30.837Z,2.25
2023-03-31T10:42:34.157Z,2.50
2023-03-31T10:43:43.214Z,2.38
2023-03-31T10:44:46.024Z,2.47
2023-03-31T10:45:51.172Z,2.38
2023-03-31T10:46:53.530Z,2.72
2023-03-31T10:47:58.300Z,2.88
2023-03-31T10:49:00.519Z,2.90
2023-03-31T10:50:04.966Z,2.13
2023-03-31T10:51:27.481Z,2.50
2023-03-31T10:52:29.725Z,2.33
2023-03-31T10:54:02.596Z,2.38
2023-03-31T10:55:13.208Z,2.50
2023-03-31T10:56:44.864Z,2.72
2023-03-31T10:57:56.656Z,2.80
2023-03-31T10:59:17.351Z,2.72
2023-03-31T11:00:55.066Z,2.80
2023-03-31T11:02:20.138Z,2.85
2023-03-31T11:03:45.362Z,2.83
2023-03-31T11:05:25.352Z,1.70
2023-03-31T11:06:47.972Z,2.10
2023-03-31T11:08:04.047Z,1.80
2023-03-31T11:09:33.072Z,2.30
2023-03-31T11:11:12.183Z,2.05
2023-03-31T11:12:24.615Z,1.95
2023-03-31T11:14:50.855Z,1.73
2023-03-31T11:16:03.330Z,1.92
2023-03-31T11:17:21.969Z,2.28
2023-03-31T11:18:36.071Z,1.23
2023-03-31T11:20:03.085Z,1.90
2023-03-31T11:21:27.859Z,1.33
2023-03-31T11:22:41.754Z,1.38
2023-03-31T11:24:06.244Z,1.25
2023-03-31T11:25:29.780Z,1.08
2023-03-31T11:26:50.220Z,0.90
2023-03-31T11:28:04.579Z,1.40
2023-03-31T11:29:23.322Z,0.98
2023-03-31T11:30:33.717Z,1.10
2023-03-31T11:32:03.825Z,1.33
2023-03-31T11:33:12.024Z,1.20
2023-03-31T11:34:33.037Z,0.90
2023-03-31T11:35:54.373Z,1.90
2023-03-31T11:37:15.373Z,1.02
2023-03-31T11:38:44.994Z,1.00
2023-03-31T11:39:59.229Z,1.20
2023-03-31T11:41:27.851Z,1.15
2023-03-31T11:42:39.157Z,1.20
2023-03-31T11:43:48.781Z,1.05
2023-03-31T11:44:56.421Z,1.33
2023-03-31T11:46:26.220Z,1.13
2023-03-31T11:47:33.860Z,1.77
2023-03-31T11:48:51.084Z,1.98
2023-03-31T11:49:59.117Z,1.15
2023-03-31T11:51:03.341Z,0.95
2023-03-31T11:52:18.193Z,0.90
2023-03-31T11:53:27.212Z,0.80
2023-03-31T11:54:45.785Z,0.80
2023-03-31T11:55:51.831Z,0.95
2023-03-31T11:56:56.594Z,0.95
2023-03-31T11:58:15.522Z,0.95
2023-03-31T11:59:20.380Z,0.88
2023-03-31T12:00:30.390Z,0.70
2023-03-31T12:01:56.987Z,1.08
2023-03-31T12:03:24.959Z,0.90
2023-03-31T12:04:45.790Z,1.00
2023-03-31T12:05:52.141Z,1.02
2023-03-31T12:07:02.482Z,1.30
2023-03-31T12:08:23.095Z,1.20
2023-03-31T12:10:06.134Z,1.27
2023-03-31T12:11:22.227Z,1.38
2023-03-31T12:12:30.057Z,1.25
2023-03-31T12:13:52.572Z,1.33
2023-03-31T12:15:16.811Z,1.10
2023-03-31T12:16:23.730Z,1.45
2023-03-31T12:17:27.464Z,1.60
2023-03-31T12:18:36.890Z,1.55
2023-03-31T12:20:10.416Z,1.42
2023-03-31T12:21:12.582Z,1.50
2023-03-31T12:22:23.959Z,1.50
2023-03-31T12:23:33.779Z,1.50
2023-03-31T12:24:36.775Z,1.33
2023-03-31T12:25:52.115Z,1.50
2023-03-31T12:27:06.242Z,1.40
2023-03-31T12:28:10.411Z,1.40
2023-03-31T12:29:38.569Z,1.40
2023-03-31T12:30:44.476Z,1.33
2023-03-31T12:31:48.876Z,1.52
2023-03-31T12:32:58.986Z,1.42
2023-03-31T12:34:06.287Z,1.35
2023-03-31T12:35:22.665Z,1.50
2023-03-31T12:36:37.599Z,1.52
2023-03-31T12:37:57.749Z,1.58
2023-03-31T12:39:25.050Z,1.30
2023-03-31T12:40:36.441Z,1.50
2023-03-31T12:41:47.403Z,1.52
2023-03-31T12:43:01.687Z,1.55
2023-03-31T12:44:34.800Z,1.40
2023-03-31T12:45:42.798Z,1.88
2023-03-31T12:46:59.639Z,1.83
2023-03-31T12:48:26.841Z,1.73
2023-03-31T12:49:50.502Z,1.95
2023-03-31T12:51:04.896Z,1.85
2023-03-31T12:52:11.806Z,1.63
2023-03-31T12:53:42.237Z,1.52
2023-03-31T12:55:16.980Z,1.50
2023-03-31T12:56:19.275Z,1.35
2023-03-31T12:57:24.046Z,1.40
2023-03-31T12:58:34.663Z,1.20
2023-03-31T12:59:39.011Z,1.30
2023-03-31T13:01:07.732Z,1.27
2023-03-31T13:02:16.433Z,1.38
2023-03-31T13:03:47.726Z,0.70
2023-03-31T13:04:50.869Z,0.98
2023-03-31T13:05:53.018Z,0.80
2023-03-31T13:06:59.557Z,0.98
2023-03-31T13:08:02.436Z,1.00
2023-03-31T13:09:27.620Z,0.98
2023-03-31T13:10:31.158Z,0.98
2023-03-31T13:11:33.430Z,0.90
2023-03-31T13:12:36.030Z,0.90
2023-03-31T13:14:02.365Z,1.02
2023-03-31T13:15:05.500Z,1.10
2023-03-31T13:16:07.666Z,1.02
2023-03-31T13:17:29.691Z,1.00
2023-03-31T13:18:34.024Z,0.88
2023-03-31T13:19:37.593Z,1.02
2023-03-31T13:20:41.987Z,1.20
2023-03-31T13:21:58.793Z,0.98
2023-03-31T13:23:17.383Z,0.80
2023-03-31T13:24:25.982Z,1.13
2023-03-31T13:25:30.946Z,1.20
2023-03-31T13:26:38.446Z,1.00
2023-03-31T13:27:49.752Z,1.23
2023-03-31T13:29:14.373Z,0.80
2023-03-31T13:30:41.452Z,1.35
2023-03-31T13:32:01.929Z,1.20
2023-03-31T13:33:10.174Z,1.17
2023-03-31T13:34:12.736Z,1.30
2023-03-31T13:35:24.001Z,1.27
2023-03-31T13:36:49.442Z,1.38
2023-03-31T13:38:17.205Z,1.38
2023-03-31T13:39:56.524Z,1.30
2023-03-31T13:41:26.516Z,1.33
2023-03-31T13:43:09.036Z,1.50
2023-03-31T13:44:38.426Z,1.13
2023-03-31T13:46:02.571Z,1.35
2023-03-31T13:47:19.409Z,1.48
2023-03-31T13:48:49.231Z,1.70
2023-03-31T13:49:54.488Z,1.48
2023-03-31T13:51:18.230Z,1.85
2023-03-31T13:53:06.538Z,1.50
2023-03-31T13:54:55.382Z,1.73
2023-03-31T13:56:25.184Z,1.35
2023-03-31T13:58:24.839Z,1.83
2023-03-31T14:00:12.385Z,1.55
2023-03-31T14:02:44.204Z,1.55
2023-03-31T14:04:26.036Z,1.42
2023-03-31T14:05:28.143Z,1.85
2023-03-31T14:06:30.292Z,1.58
2023-03-31T14:07:46.450Z,1.35
2023-03-31T14:08:58.930Z,1.40
2023-03-31T14:11:24.674Z,1.48
2023-03-31T14:12:35.366Z,1.35
2023-03-31T14:13:37.590Z,1.60
2023-03-31T14:14:40.759Z,1.83
2023-03-31T14:15:51.011Z,1.75
2023-03-31T14:16:58.465Z,1.80
2023-03-31T14:18:02.026Z,2.00
2023-03-31T14:19:41.823Z,2.30
2023-03-31T14:20:58.361Z,1.60
2023-03-31T14:22:32.194Z,1.48
2023-03-31T14:23:54.541Z,1.40
2023-03-31T14:25:12.848Z,1.50
2023-03-31T14:26:57.017Z,1.95
2023-03-31T14:28:16.765Z,1.30
2023-03-31T14:29:47.149Z,1.30
2023-03-31T14:31:13.596Z,1.63
2023-03-31T14:32:19.024Z,1.40
2023-03-31T14:33:36.507Z,1.40
2023-03-31T14:34:53.676Z,1.48
2023-03-31T14:36:04.626Z,1.58
2023-03-31T14:37:13.633Z,1.80
2023-03-31T14:38:21.592Z,1.63
2023-03-31T14:39:37.621Z,1.30
2023-03-31T14:40:53.842Z,1.52
2023-03-31T14:42:01.470Z,1.20
2023-03-31T14:43:04.606Z,1.20
2023-03-31T14:44:07.723Z,1.20
2023-03-31T14:45:24.887Z,1.27
2023-03-31T14:46:32.015Z,1.30
2023-03-31T14:47:34.293Z,1.30
2023-03-31T14:48:46.108Z,1.30
2023-03-31T14:49:58.535Z,1.88
2023-03-31T14:52:14.238Z,1.38
2023-03-31T14:54:21.083Z,1.25
2023-03-31T14:55:31.796Z,1.13
2023-03-31T14:56:42.413Z,1.52
2023-03-31T14:57:46.861Z,1.33
2023-03-31T14:58:52.907Z,1.45
2023-03-31T14:59:55.733Z,1.17
2023-03-31T15:00:59.330Z,1.13
2023-03-31T15:02:04.462Z,1.30
2023-03-31T15:03:13.848Z,1.15
2023-03-31T15:04:25.946Z,1.02
2023-03-31T15:05:36.362Z,1.10
2023-03-31T15:06:41.853Z,1.30
2023-03-31T15:07:44.091Z,1.02
2023-03-31T15:08:46.686Z,1.13
2023-03-31T15:09:50.892Z,1.30
2023-03-31T15:11:02.377Z,1.08
2023-03-31T15:12:15.645Z,0.90
2023-03-31T15:13:34.590Z,1.50
2023-03-31T15:14:43.394Z,0.90
2023-03-31T15:15:46.261Z,1.23
2023-03-31T15:16:50.664Z,1.30
2023-03-31T15:17:54.399Z,1.27
2023-03-31T15:18:58.793Z,1.30
2023-03-31T15:20:04.869Z,1.10
2023-03-31T15:21:19.589Z,1.42
2023-03-31T15:22:25.821Z,1.08
2023-03-31T15:23:28.523Z,1.10
2023-03-31T15:24:31.564Z,1.15
2023-03-31T15:25:42.345Z,1.20
2023-03-31T15:27:35.722Z,1.10
2023-03-31T15:28:47.173Z,1.40
2023-03-31T15:29:52.789Z,1.63
2023-03-31T15:31:08.958Z,1.58
2023-03-31T15:32:17.354Z,1.70